• Join FlightAware (Why Join?)
  • Login
  • US Flag 
02:33PM EDT


 

Airport Tracker/Info


-or-


 

Live Flight TrackerFlight Track Log ✈ SWA2058 ✈ 11-May-2013 ✈ KLAS - KAUS

Flight Track Log - Related Links

Times and Time Zones

All times are in EDT time to prevent confusion due to time zone crossing. See the SWA2058 flight status page for this flight to view local times or setup timezone preferences in your user account.

Time Position Orientation Groundspeed Altitude Reporting Facility
EDT Latitude Longitude Course Direction KTS MPH feet Rate Location/Type
10:03PM 36.0756 -115.1950 263° West 169 194 4,000  Level Los Angeles Center
10:04PM 36.0733 -115.2422 267° West 201 231 5,100 1,800 Climbing Los Angeles Center
10:04PM 36.0319 -115.2731 211° Southwest 272 313 6,400 2,340 Climbing Los Angeles Center
10:05PM 36.0031 -115.2833 196° South 278 320 7,500 2,760 Climbing Los Angeles Center
10:05PM 35.9706 -115.2986 201° Southwest 292 336 8,700 3,240 Climbing Los Angeles Center
10:06PM 35.9258 -115.2456 136° Southeast 292 336 10,800 2,880 Climbing Los Angeles Center
10:07PM 35.9250 -115.1308 90° East 333 383 13,900 3,120 Climbing Los Angeles Center
10:08PM 35.9244 -115.0108 90° East 348 400 17,200 2,700 Climbing Los Angeles Center
10:09PM 35.9253 -114.8831 90° East 368 423 20,000 2,700 Climbing Los Angeles Center
10:10PM 35.9261 -114.7217 90° East 391 450 23,300 2,820 Climbing Los Angeles Center
10:11PM 35.9247 -114.5836 91° East 402 463 25,900 2,280 Climbing Los Angeles Center
10:12PM 35.9250 -114.4428 90° East 410 472 28,000 1,920 Climbing Los Angeles Center
10:13PM 35.9247 -114.2986 90° East 420 483 29,900 1,440 Climbing Los Angeles Center
10:14PM 35.9231 -114.1494 91° East 433 498 31,000 780 Climbing Los Angeles Center
10:15PM 35.9236 -114.0028 90° East 430 495 31,600 1,380 Climbing Los Angeles Center
10:16PM 35.9083 -113.8283 96° East 434 499 33,900 1,860 Climbing Los Angeles Center
10:18PM 35.8736 -113.6569 104° East 429 494 35,900 1,500 Climbing Los Angeles Center
10:19PM 35.8478 -113.5322 104° East 429 494 37,300 1,320 Climbing Los Angeles Center
10:20PM 35.8189 -113.3908 104° East 427 491 38,700 780 Climbing Los Angeles Center
10:21PM 35.7733 -113.2547 112° Southeast 436 502 39,000 120 Climbing Los Angeles Center
10:22PM 35.6950 -113.1017 122° Southeast 443 510 39,000  Level Los Angeles Center
10:23PM 35.6339 -112.9831 122° Southeast 443 510 39,000  Level Los Angeles Center
10:24PM 35.5586 -112.8375 122° Southeast 441 507 39,000  Level Los Angeles Center
10:25PM 35.4925 -112.7111 123° Southeast 441 507 39,000  Level Los Angeles Center
10:26PM 35.4283 -112.5897 123° Southeast 442 509 39,000  Level Los Angeles Center
10:27PM 35.3619 -112.4631 123° Southeast 441 507 39,000  Level Los Angeles Center
10:27PM 35.3353 -112.4131 123° Southeast 440 506 39,000  Level Albuquerque Center
10:28PM 35.2692 -112.2878 123° Southeast 439 505 39,000  Level Albuquerque Center
10:29PM 35.2019 -112.1625 123° Southeast 440 506 39,000  Level Albuquerque Center
10:30PM 35.1347 -112.0381 123° Southeast 441 507 39,000  Level Albuquerque Center
10:31PM 35.0667 -111.9119 123° Southeast 444 511 39,000  Level Albuquerque Center
10:32PM 35.0011 -111.7864 122° Southeast 443 510 39,000  Level Albuquerque Center
10:33PM 34.9281 -111.6506 123° Southeast 441 507 39,000  Level Albuquerque Center
10:34PM 34.8614 -111.5267 123° Southeast 438 504 39,000  Level Albuquerque Center
10:35PM 34.7947 -111.4031 123° Southeast 436 502 39,000  Level Albuquerque Center
10:36PM 34.7275 -111.2808 124° Southeast 435 501 39,000  Level Albuquerque Center
10:37PM 34.6606 -111.1578 123° Southeast 435 501 39,000  Level Albuquerque Center
10:38PM 34.5939 -111.0342 123° Southeast 435 501 39,000  Level Albuquerque Center
10:39PM 34.5261 -110.9103 124° Southeast 437 503 39,000  Level Albuquerque Center
10:40PM 34.4583 -110.7881 124° Southeast 437 503 39,000  Level Albuquerque Center
10:41PM 34.3922 -110.6647 123° Southeast 436 502 39,000  Level Albuquerque Center
10:42PM 34.3244 -110.5419 124° Southeast 437 503 39,000  Level Albuquerque Center
10:43PM 34.2492 -110.4086 124° Southeast 444 511 39,000  Level Albuquerque Center
10:44PM 34.1825 -110.2847 123° Southeast 445 512 39,000  Level Albuquerque Center
10:45PM 34.1133 -110.1625 124° Southeast 445 512 39,000  Level Albuquerque Center
10:46PM 34.0378 -110.0275 124° Southeast 444 511 39,000  Level Albuquerque Center
10:47PM 33.9758 -109.9181 124° Southeast 443 510 39,000  Level Albuquerque Center
10:48PM 33.9047 -109.7917 124° Southeast 446 513 39,000  Level Albuquerque Center
10:49PM 33.8244 -109.6500 124° Southeast 443 510 39,000  Level Albuquerque Center
10:50PM 33.7558 -109.5294 124° Southeast 440 506 39,000  Level Albuquerque Center
10:51PM 33.6861 -109.4083 125° Southeast 442 509 39,000  Level Albuquerque Center
10:52PM 33.6178 -109.2886 124° Southeast 439 505 39,000  Level Albuquerque Center
10:53PM 33.5478 -109.1689 125° Southeast 440 506 39,000  Level Albuquerque Center
10:54PM 33.4789 -109.0494 125° Southeast 438 504 39,000  Level Albuquerque Center
10:55PM 33.4094 -108.9303 125° Southeast 437 503 39,000  Level Albuquerque Center
10:56PM 33.3403 -108.8100 125° Southeast 439 505 39,000  Level Albuquerque Center
10:57PM 33.2700 -108.6908 125° Southeast 438 504 39,000  Level Albuquerque Center
10:58PM 33.2006 -108.5706 125° Southeast 440 506 39,000  Level Albuquerque Center
10:59PM 33.1292 -108.4525 126° Southeast 439 505 39,000  Level Albuquerque Center
11:00PM 33.0767 -108.3239 116° Southeast 436 502 39,000  Level Albuquerque Center
11:02PM 33.0500 -108.1892 103° East 424 488 39,000  Level Albuquerque Center
11:03PM 33.0189 -108.0372 104° East 424 488 39,000  Level Albuquerque Center
11:04PM 32.9919 -107.8997 103° East 425 489 39,000 -60 Level Albuquerque Center
11:05PM 32.9639 -107.7597 103° East 432 497 38,900  Descending Albuquerque Center
11:06PM 32.9350 -107.6178 104° East 438 504 39,000  Climbing Albuquerque Center
11:07PM 32.9056 -107.4761 104° East 439 505 39,000 -60 Level Albuquerque Center
11:08PM 32.8781 -107.3361 103° East 435 501 38,900  Descending Albuquerque Center
11:09PM 32.8497 -107.1967 104° East 432 497 39,000  Climbing Albuquerque Center
11:10PM 32.8214 -107.0567 104° East 431 496 39,000  Level Albuquerque Center
11:11PM 32.7911 -106.9169 104° East 432 497 39,000  Level Albuquerque Center
11:12PM 32.7625 -106.7772 104° East 433 498 39,000  Level Albuquerque Center
11:13PM 32.7331 -106.6361 104° East 437 503 39,000  Level Albuquerque Center
11:14PM 32.7033 -106.4956 104° East 438 504 39,000  Level Albuquerque Center
11:15PM 32.6731 -106.3558 104° East 438 504 39,000  Level Albuquerque Center
11:16PM 32.6436 -106.2219 105° East 443 510 39,000  Level Albuquerque Center
11:17PM 32.6072 -106.0492 104° East 449 517 39,000  Level Albuquerque Center
11:18PM 32.5764 -105.9094 105° East 441 507 39,000  Level Albuquerque Center
11:19PM 32.5458 -105.7692 104° East 441 507 39,000  Level Albuquerque Center
11:20PM 32.5150 -105.6278 104° East 442 509 39,000  Level Albuquerque Center
11:21PM 32.4842 -105.4869 105° East 442 509 39,000  Level Albuquerque Center
11:22PM 32.4531 -105.3464 105° East 442 509 39,000  Level Albuquerque Center
11:23PM 32.4222 -105.2053 104° East 442 509 39,000  Level Albuquerque Center
11:24PM 32.3897 -105.0656 105° East 441 507 39,000  Level Albuquerque Center
11:25PM 32.3583 -104.9247 105° East 442 509 39,000  Level Albuquerque Center
11:26PM 32.3269 -104.7844 105° East 442 509 39,000  Level Albuquerque Center
11:27PM 32.2950 -104.6439 105° East 442 509 39,000  Level Albuquerque Center
11:28PM 32.2628 -104.5044 105° East 440 506 39,000  Level Albuquerque Center
11:29PM 32.2306 -104.3633 105° East 442 509 39,000  Level Albuquerque Center
11:31PM 32.1639 -104.0753 105° East 441 507 39,000  Level Fort Worth Center
11:32PM 32.1297 -103.9306 106° East 451 519 39,000  Level Fort Worth Center
11:33PM 32.0975 -103.7861 105° East 456 525 39,000  Level Fort Worth Center
11:34PM 32.0547 -103.6411 109° East 462 532 39,000  Level Fort Worth Center
11:35PM 32.0242 -103.4944 104° East 462 532 39,000  Level Fort Worth Center
11:36PM 31.9897 -103.3453 105° East 462 532 39,000  Level Fort Worth Center
11:37PM 31.9525 -103.2008 107° East 462 532 39,000  Level Fort Worth Center
11:38PM 31.9175 -103.0542 106° East 467 537 39,000  Level Fort Worth Center
11:39PM 31.8822 -102.9078 106° East 467 537 39,000  Level Fort Worth Center
11:40PM 31.8489 -102.7617 105° East 467 537 39,000  Level Fort Worth Center
11:41PM 31.8094 -102.6103 107° East 472 543 39,000  Level Fort Worth Center
11:42PM 31.7736 -102.4617 106° East 472 543 39,000  Level Fort Worth Center
11:43PM 31.7400 -102.3133 105° East 472 543 39,000  Level Fort Worth Center
11:44PM 31.6997 -102.1647 108° East 472 543 39,000  Level Fort Worth Center
11:45PM 31.6656 -102.0164 105° East 467 537 39,000  Level Fort Worth Center
11:46PM 31.6269 -101.8681 107° East 467 537 39,000  Level Fort Worth Center
11:47PM 31.5883 -101.7247 108° East 467 537 39,000  Level Fort Worth Center
11:48PM 31.5494 -101.5744 107° East 473 544 39,000  Level Fort Worth Center
11:50PM 31.4578 -101.2167 107° East 475 547 39,000  Level Houston Center
11:51PM 31.4172 -101.0669 108° East 478 550 39,000  Level Houston Center
11:52PM 31.3781 -100.9172 107° East 484 557 39,000 -300 Level Houston Center
11:53PM 31.3392 -100.7661 107° East 485 558 38,400 -1,560 Descending Houston Center
11:54PM 31.2992 -100.6178 107° East 480 552 35,900 -2,580 Descending Houston Center
11:55PM 31.2583 -100.4700 108° East 479 551 33,300 -2,400 Descending Houston Center
11:56PM 31.2214 -100.3258 107° East 468 539 31,100 -2,100 Descending Houston Center
11:57PM 31.1833 -100.1875 108° East 453 521 29,100 -1,080 Descending Houston Center
11:58PM 31.1475 -100.0536 107° East 436 502 29,000 -60 Descending Houston Center
11:59PM 31.1169 -99.9200 105° East 429 494 29,000  Level Houston Center
12:00AM 31.0903 -99.7847 103° East 427 491 29,000  Level Houston Center
12:01AM 31.0614 -99.6492 104° East 428 493 29,000  Level Houston Center
12:02AM 31.0319 -99.5114 104° East 435 501 29,000  Level Houston Center
12:03AM 31.0033 -99.3731 104° East 439 505 29,000  Level Houston Center
12:04AM 30.9725 -99.2350 105° East 441 507 29,000 -1,020 Level Houston Center
12:05AM 30.9425 -99.0894 103° East 447 514 27,000 -1,800 Descending Houston Center
12:06AM 30.9069 -98.9567 107° East 427 491 25,400 -1,680 Descending Houston Center
12:07AM 30.8458 -98.8458 123° Southeast 405 466 23,700 -1,920 Descending Houston Center
12:08AM 30.7864 -98.7364 122° Southeast 398 458 21,600 -1,920 Descending Houston Center
12:09AM 30.7375 -98.6472 123° Southeast 392 451 19,900 -1,920 Descending Houston Center
12:10AM 30.6789 -98.5419 123° Southeast 386 444 17,800 -2,100 Descending Houston Center
12:11AM 30.6233 -98.4403 122° Southeast 375 432 15,800 -2,100 Descending Houston Center
12:12AM 30.5681 -98.3411 123° Southeast 365 420 13,700 -2,100 Descending Houston Center
12:13AM 30.5158 -98.2464 123° Southeast 352 405 11,700 -1,860 Descending Houston Center
12:14AM 30.4642 -98.1544 123° Southeast 341 392 10,000 -1,140 Descending Houston Center
12:15AM 30.4100 -98.0819 131° Southeast 302 348 9,500 -1,080 Descending Houston Center
12:16AM 30.3578 -98.0153 132° Southeast 281 323 7,900 -1,620 Descending Houston Center
12:17AM 30.2975 -97.9403 133° Southeast 280 322 6,300 -1,560 Descending Houston Center
12:18AM 30.2489 -97.8786 132° Southeast 280 322 4,800 -1,320 Descending Houston Center
12:19AM 30.2000 -97.8139 131° Southeast 279 321 3,700 -720 Descending Houston Center
12:20AM 30.1522 -97.7544 133° Southeast 262 302 3,400 -480 Descending Houston Center
12:21AM 30.1056 -97.7350 160° South 193 222 2,800 -600 Descending Houston Center
12:22AM 30.0728 -97.7153 152° Southeast 159 183 2,300 -600 Descending Houston Center
12:23AM 30.1022 -97.6894 37° Northeast 132 152 1,700 -480 Descending Houston Center
12:24AM 30.1325 -97.6786 17° North 116 133 1,400 -480 Descending Houston Center
12:25AM 30.1650 -97.6742 North 114 131 800 -600 Descending Houston Center